sensor_id;sensor_type;location;lat;lon;timestamp;pressure;altitude;pressure_sealevel;temperature;humidity
31483;BME280;18103;52.246;8.052;2024-01-15T00:00:32;98550.81;;;0.31;100.00
31483;BME280;18103;52.246;8.052;2024-01-15T00:03:03;98546.28;;;0.35;100.00
31483;BME280;18103;52.246;8.052;2024-01-15T00:05:31;98542.72;;;0.36;100.00
31483;BME280;18103;52.246;8.052;2024-01-15T00:07:56;98541.69;;;0.39;100.00
31483;BME280;18103;52.246;8.052;2024-01-15T00:10:24;98538.19;;;0.40;100.00
31483;BME280;18103;52.246;8.052;2024-01-15T00:12:49;98529.66;;;0.38;100.00
31483;BME280;18103;52.246;8.052;2024-01-15T00:15:15;98523.53;;;0.39;100.00
31483;BME280;18103;52.246;8.052;2024-01-15T00:17:42;98526.13;;;0.39;100.00
31483;BME280;18103;52.246;8.052;2024-01-15T00:20:12;98523.63;;;0.37;100.00
31483;BME280;18103;52.246;8.052;2024-01-15T00:22:42;98520.84;;;0.40;100.00
31483;BME280;18103;52.246;8.052;2024-01-15T00:25:09;98515.13;;;0.35;100.00
31483;BME280;18103;52.246;8.052;2024-01-15T00:27:37;98516.88;;;0.34;100.00
31483;BME280;18103;52.246;8.052;2024-01-15T00:30:05;98511.59;;;0.36;100.00
31483;BME280;18103;52.246;8.052;2024-01-15T00:32:33;98502.66;;;0.40;100.00
31483;BME280;18103;52.246;8.052;2024-01-15T00:35:03;98499.03;;;0.43;100.00
31483;BME280;18103;52.246;8.052;2024-01-15T00:37:28;98490.81;;;0.36;100.00
31483;BME280;18103;52.246;8.052;2024-01-15T00:39:54;98499.75;;;0.32;100.00
31483;BME280;18103;52.246;8.052;2024-01-15T00:42:21;98497.47;;;0.40;100.00
31483;BME280;18103;52.246;8.052;2024-01-15T00:44:48;98496.97;;;0.35;100.00
31483;BME280;18103;52.246;8.052;2024-01-15T00:47:18;98499.03;;;0.30;100.00
31483;BME280;18103;52.246;8.052;2024-01-15T00:49:43;98498.09;;;0.31;100.00
31483;BME280;18103;52.246;8.052;2024-01-15T00:52:09;98489.78;;;0.26;100.00
31483;BME280;18103;52.246;8.052;2024-01-15T00:54:36;98494.44;;;0.33;100.00
31483;BME280;18103;52.246;8.052;2024-01-15T00:57:03;98493.09;;;0.28;100.00
31483;BME280;18103;52.246;8.052;2024-01-15T00:59:30;98485.41;;;0.26;100.00
31483;BME280;18103;52.246;8.052;2024-01-15T01:02:00;98485.75;;;0.34;100.00
31483;BME280;18103;52.246;8.052;2024-01-15T01:04:28;98484.72;;;0.37;100.00
31483;BME280;18103;52.246;8.052;2024-01-15T01:06:53;98483.66;;;0.27;100.00
31483;BME280;18103;52.246;8.052;2024-01-15T01:09:19;98489.03;;;0.24;100.00
31483;BME280;18103;52.246;8.052;2024-01-15T01:11:44;98481.78;;;0.29;100.00
31483;BME280;18103;52.246;8.052;2024-01-15T01:14:09;98489.88;;;0.24;100.00
31483;BME280;18103;52.246;8.052;2024-01-15T01:16:35;98463.94;;;0.24;100.00
31483;BME280;18103;52.246;8.052;2024-01-15T01:19:05;98473.56;;;0.22;100.00
31483;BME280;18103;52.246;8.052;2024-01-15T01:21:31;98475.34;;;0.22;100.00
31483;BME280;18103;52.246;8.052;2024-01-15T01:23:56;98472.66;;;0.23;100.00
31483;BME280;18103;52.246;8.052;2024-01-15T01:26:22;98474.44;;;0.23;100.00
31483;BME280;18103;52.246;8.052;2024-01-15T01:28:49;98479.91;;;0.18;100.00
31483;BME280;18103;52.246;8.052;2024-01-15T01:31:15;98480.75;;;0.19;100.00
31483;BME280;18103;52.246;8.052;2024-01-15T01:33:43;98482.59;;;0.16;100.00
31483;BME280;18103;52.246;8.052;2024-01-15T01:36:11;98480.84;;;0.17;100.00
31483;BME280;18103;52.246;8.052;2024-01-15T01:38:37;98473.28;;;0.27;100.00
31483;BME280;18103;52.246;8.052;2024-01-15T01:41:04;98469.63;;;0.16;100.00
31483;BME280;18103;52.246;8.052;2024-01-15T01:43:30;98478.34;;;0.15;100.00
31483;BME280;18103;52.246;8.052;2024-01-15T01:45:58;98463.94;;;0.11;100.00
31483;BME280;18103;52.246;8.052;2024-01-15T01:48:27;98459.88;;;0.20;100.00
31483;BME280;18103;52.246;8.052;2024-01-15T01:50:56;98454.28;;;0.13;100.00
31483;BME280;18103;52.246;8.052;2024-01-15T01:53:23;98449.91;;;0.14;100.00
31483;BME280;18103;52.246;8.052;2024-01-15T01:55:52;98450.97;;;0.11;100.00
31483;BME280;18103;52.246;8.052;2024-01-15T01:58:19;98451.03;;;0.10;100.00
31483;BME280;18103;52.246;8.052;2024-01-15T02:00:46;98449.19;;;0.12;100.00
31483;BME280;18103;52.246;8.052;2024-01-15T02:03:14;98451.56;;;0.02;100.00
31483;BME280;18103;52.246;8.052;2024-01-15T02:05:43;98458.81;;;0.10;100.00
31483;BME280;18103;52.246;8.052;2024-01-15T02:08:11;98460.59;;;0.09;100.00
31483;BME280;18103;52.246;8.052;2024-01-15T02:10:37;98464.09;;;0.08;100.00
31483;BME280;18103;52.246;8.052;2024-01-15T02:13:02;98457.06;;;0.10;100.00
31483;BME280;18103;52.246;8.052;2024-01-15T02:15:28;98460.47;;;0.11;100.00
31483;BME280;18103;52.246;8.052;2024-01-15T02:20:22;98460.59;;;0.09;100.00
31483;BME280;18103;52.246;8.052;2024-01-15T02:22:47;98464.22;;;0.07;100.00
31483;BME280;18103;52.246;8.052;2024-01-15T02:25:12;98453.00;;;0.06;100.00
31483;BME280;18103;52.246;8.052;2024-01-15T02:27:42;98447.72;;;0.08;100.00
31483;BME280;18103;52.246;8.052;2024-01-15T02:30:11;98447.00;;;0.06;100.00
31483;BME280;18103;52.246;8.052;2024-01-15T02:32:39;98446.06;;;0.07;100.00
31483;BME280;18103;52.246;8.052;2024-01-15T02:35:04;98442.03;;;0.15;100.00
31483;BME280;18103;52.246;8.052;2024-01-15T02:37:29;98444.41;;;0.06;100.00
31483;BME280;18103;52.246;8.052;2024-01-15T02:40:00;98450.53;;;0.17;100.00
31483;BME280;18103;52.246;8.052;2024-01-15T02:42:31;98446.50;;;0.13;100.00
31483;BME280;18103;52.246;8.052;2024-01-15T02:44:56;98444.44;;;0.19;100.00
31483;BME280;18103;52.246;8.052;2024-01-15T02:47:24;98453.56;;;0.11;100.00
31483;BME280;18103;52.246;8.052;2024-01-15T02:49:51;98441.94;;;0.17;100.00
31483;BME280;18103;52.246;8.052;2024-01-15T02:52:17;98452.00;;;0.09;100.00
31483;BME280;18103;52.246;8.052;2024-01-15T02:54:45;98445.22;;;0.06;100.00
31483;BME280;18103;52.246;8.052;2024-01-15T02:57:13;98450.00;;;0.12;100.00
31483;BME280;18103;52.246;8.052;2024-01-15T02:59:40;98451.66;;;0.13;100.00
31483;BME280;18103;52.246;8.052;2024-01-15T03:02:08;98449.41;;;0.09;100.00
31483;BME280;18103;52.246;8.052;2024-01-15T03:04:36;98459.66;;;0.10;100.00
31483;BME280;18103;52.246;8.052;2024-01-15T03:07:01;98451.47;;;0.16;100.00
31483;BME280;18103;52.246;8.052;2024-01-15T03:09:26;98454.06;;;0.16;100.00
31483;BME280;18103;52.246;8.052;2024-01-15T03:11:52;98453.13;;;0.17;100.00
31483;BME280;18103;52.246;8.052;2024-01-15T03:14:17;98460.28;;;0.14;100.00
31483;BME280;18103;52.246;8.052;2024-01-15T03:16:42;98457.06;;;0.10;100.00
31483;BME280;18103;52.246;8.052;2024-01-15T03:19:12;98457.78;;;0.12;100.00
31483;BME280;18103;52.246;8.052;2024-01-15T03:21:40;98465.88;;;0.08;100.00
31483;BME280;18103;52.246;8.052;2024-01-15T03:24:05;98478.53;;;0.12;100.00
31483;BME280;18103;52.246;8.052;2024-01-15T03:26:33;98477.41;;;0.16;100.00
31483;BME280;18103;52.246;8.052;2024-01-15T03:29:02;98473.25;;;0.14;100.00
31483;BME280;18103;52.246;8.052;2024-01-15T03:31:29;98470.47;;;0.17;100.00
31483;BME280;18103;52.246;8.052;2024-01-15T03:33:55;98479.06;;;0.17;100.00
31483;BME280;18103;52.246;8.052;2024-01-15T03:36:25;98478.97;;;0.19;100.00
31483;BME280;18103;52.246;8.052;2024-01-15T03:38:50;98473.88;;;0.17;100.00
31483;BME280;18103;52.246;8.052;2024-01-15T03:41:19;98471.09;;;0.21;100.00
31483;BME280;18103;52.246;8.052;2024-01-15T03:43:44;98451.47;;;0.16;100.00
31483;BME280;18103;52.246;8.052;2024-01-15T03:46:09;98472.84;;;0.20;100.00
31483;BME280;18103;52.246;8.052;2024-01-15T03:48:37;98471.28;;;0.17;100.00
31483;BME280;18103;52.246;8.052;2024-01-15T03:51:05;98460.81;;;0.19;100.00
31483;BME280;18103;52.246;8.052;2024-01-15T03:53:30;98470.97;;;0.22;100.00
31483;BME280;18103;52.246;8.052;2024-01-15T03:55:58;98459.78;;;0.22;100.00
31483;BME280;18103;52.246;8.052;2024-01-15T03:58:28;98457.91;;;0.24;100.00
31483;BME280;18103;52.246;8.052;2024-01-15T04:00:54;98454.38;;;0.25;100.00
31483;BME280;18103;52.246;8.052;2024-01-15T04:03:24;98458.53;;;0.27;100.00
31483;BME280;18103;52.246;8.052;2024-01-15T04:05:49;98457.63;;;0.28;100.00
31483;BME280;18103;52.246;8.052;2024-01-15T04:08:15;98458.84;;;0.23;100.00
31483;BME280;18103;52.246;8.052;2024-01-15T04:10:43;98449.94;;;0.27;100.00
31483;BME280;18103;52.246;8.052;2024-01-15T04:13:10;98446.59;;;0.25;100.00
31483;BME280;18103;52.246;8.052;2024-01-15T04:15:38;98454.50;;;0.23;100.00
31483;BME280;18103;52.246;8.052;2024-01-15T04:18:06;98451.78;;;0.25;100.00
31483;BME280;18103;52.246;8.052;2024-01-15T04:20:32;98448.16;;;0.27;100.00
31483;BME280;18103;52.246;8.052;2024-01-15T04:22:57;98448.69;;;0.32;100.00
31483;BME280;18103;52.246;8.052;2024-01-15T04:25:25;98453.25;;;0.29;100.00
31483;BME280;18103;52.246;8.052;2024-01-15T04:27:50;98445.56;;;0.27;100.00
31483;BME280;18103;52.246;8.052;2024-01-15T04:30:18;98448.81;;;0.31;100.00
31483;BME280;18103;52.246;8.052;2024-01-15T04:32:43;98441.41;;;0.25;100.00
31483;BME280;18103;52.246;8.052;2024-01-15T04:35:09;98437.56;;;0.30;100.00
31483;BME280;18103;52.246;8.052;2024-01-15T04:37:34;98443.28;;;0.36;100.00
31483;BME280;18103;52.246;8.052;2024-01-15T04:39:59;98431.34;;;0.33;100.00
31483;BME280;18103;52.246;8.052;2024-01-15T04:42:27;98444.84;;;0.25;100.00
31483;BME280;18103;52.246;8.052;2024-01-15T04:44:52;98441.09;;;0.29;100.00
31483;BME280;18103;52.246;8.052;2024-01-15T04:47:20;98432.38;;;0.30;100.00
31483;BME280;18103;52.246;8.052;2024-01-15T04:49:45;98430.81;;;0.28;100.00
31483;BME280;18103;52.246;8.052;2024-01-15T04:52:10;98419.50;;;0.29;100.00
31483;BME280;18103;52.246;8.052;2024-01-15T04:54:38;98423.66;;;0.31;100.00
31483;BME280;18103;52.246;8.052;2024-01-15T04:57:03;98426.38;;;0.30;100.00
31483;BME280;18103;52.246;8.052;2024-01-15T04:59:31;98418.97;;;0.24;100.00
31483;BME280;18103;52.246;8.052;2024-01-15T05:01:57;98421.50;;;0.25;100.00
31483;BME280;18103;52.246;8.052;2024-01-15T05:04:22;98405.41;;;0.20;100.00
31483;BME280;18103;52.246;8.052;2024-01-15T05:06:51;98411.31;;;0.22;100.00
31483;BME280;18103;52.246;8.052;2024-01-15T05:09:16;98403.34;;;0.25;100.00
31483;BME280;18103;52.246;8.052;2024-01-15T05:11:43;98414.75;;;0.23;100.00
31483;BME280;18103;52.246;8.052;2024-01-15T05:14:10;98401.16;;;0.19;100.00
31483;BME280;18103;52.246;8.052;2024-01-15T05:16:40;98398.44;;;0.21;100.00
31483;BME280;18103;52.246;8.052;2024-01-15T05:19:08;98407.69;;;0.25;100.00
31483;BME280;18103;52.246;8.052;2024-01-15T05:21:36;98395.44;;;0.27;100.00
31483;BME280;18103;52.246;8.052;2024-01-15T05:24:01;98400.81;;;0.24;100.00
31483;BME280;18103;52.246;8.052;2024-01-15T05:26:27;98410.06;;;0.15;100.00
31483;BME280;18103;52.246;8.052;2024-01-15T05:28:52;98402.28;;;0.15;100.00
31483;BME280;18103;52.246;8.052;2024-01-15T05:31:17;98408.09;;;0.19;100.00
31483;BME280;18103;52.246;8.052;2024-01-15T05:33:43;98412.97;;;0.23;100.00
31483;BME280;18103;52.246;8.052;2024-01-15T05:36:08;98399.06;;;0.24;100.00
31483;BME280;18103;52.246;8.052;2024-01-15T05:38:36;98399.38;;;0.20;100.00
31483;BME280;18103;52.246;8.052;2024-01-15T05:41:04;98408.09;;;0.19;100.00
31483;BME280;18103;52.246;8.052;2024-01-15T05:43:32;98401.88;;;0.21;100.00
31483;BME280;18103;52.246;8.052;2024-01-15T05:46:00;98404.56;;;0.20;100.00
31483;BME280;18103;52.246;8.052;2024-01-15T05:48:28;98398.56;;;0.19;100.00
31483;BME280;18103;52.246;8.052;2024-01-15T05:50:55;98395.13;;;0.19;100.00
31483;BME280;18103;52.246;8.052;2024-01-15T05:53:26;98401.56;;;0.26;100.00
31483;BME280;18103;52.246;8.052;2024-01-15T05:55:51;98399.56;;;0.29;100.00
31483;BME280;18103;52.246;8.052;2024-01-15T05:58:17;98403.31;;;0.12;100.00
31483;BME280;18103;52.246;8.052;2024-01-15T06:00:47;98392.84;;;0.14;100.00
31483;BME280;18103;52.246;8.052;2024-01-15T06:03:15;98396.06;;;0.17;100.00
31483;BME280;18103;52.246;8.052;2024-01-15T06:05:40;98409.75;;;0.20;100.00
31483;BME280;18103;52.246;8.052;2024-01-15T06:08:05;98398.66;;;0.17;100.00
31483;BME280;18103;52.246;8.052;2024-01-15T06:10:33;98405.81;;;0.14;100.00
31483;BME280;18103;52.246;8.052;2024-01-15T06:13:01;98405.31;;;0.09;100.00
31483;BME280;18103;52.246;8.052;2024-01-15T06:15:28;98408.22;;;0.17;100.00
31483;BME280;18103;52.246;8.052;2024-01-15T06:17:57;98416.00;;;0.17;100.00
31483;BME280;18103;52.246;8.052;2024-01-15T06:20:22;98405.91;;;0.12;100.00
31483;BME280;18103;52.246;8.052;2024-01-15T06:22:50;98408.50;;;0.12;100.00
31483;BME280;18103;52.246;8.052;2024-01-15T06:25:17;98410.50;;;0.09;100.00
31483;BME280;18103;52.246;8.052;2024-01-15T06:27:42;98401.16;;;0.06;100.00
31483;BME280;18103;52.246;8.052;2024-01-15T06:30:08;98405.31;;;0.09;100.00
31483;BME280;18103;52.246;8.052;2024-01-15T06:32:37;98410.16;;;0.13;100.00
31483;BME280;18103;52.246;8.052;2024-01-15T06:35:04;98410.06;;;0.15;100.00
31483;BME280;18103;52.246;8.052;2024-01-15T06:37:32;98409.13;;;0.16;100.00
31483;BME280;18103;52.246;8.052;2024-01-15T06:40:00;98411.09;;;0.12;100.00
31483;BME280;18103;52.246;8.052;2024-01-15T06:42:28;98412.56;;;0.16;100.00
31483;BME280;18103;52.246;8.052;2024-01-15T06:44:56;98409.34;;;0.13;100.00
31483;BME280;18103;52.246;8.052;2024-01-15T06:47:23;98417.03;;;0.14;100.00
31483;BME280;18103;52.246;8.052;2024-01-15T06:49:49;98406.94;;;0.10;100.00
31483;BME280;18103;52.246;8.052;2024-01-15T06:52:17;98426.56;;;0.14;100.00
31483;BME280;18103;52.246;8.052;2024-01-15T06:54:43;98423.03;;;0.15;100.00
31483;BME280;18103;52.246;8.052;2024-01-15T06:57:08;98429.47;;;0.09;100.00
31483;BME280;18103;52.246;8.052;2024-01-15T06:59:39;98423.25;;;0.12;100.00
31483;BME280;18103;52.246;8.052;2024-01-15T07:02:07;98426.75;;;0.11;100.00
31483;BME280;18103;52.246;8.052;2024-01-15T07:04:32;98435.50;;;0.23;100.00
31483;BME280;18103;52.246;8.052;2024-01-15T07:06:58;98430.38;;;0.08;100.00
31483;BME280;18103;52.246;8.052;2024-01-15T07:09:23;98431.84;;;0.12;100.00
31483;BME280;18103;52.246;8.052;2024-01-15T07:11:51;98423.34;;;0.10;100.00
31483;BME280;18103;52.246;8.052;2024-01-15T07:14:16;98423.78;;;0.17;100.00
31483;BME280;18103;52.246;8.052;2024-01-15T07:16:42;98423.78;;;0.17;100.00
31483;BME280;18103;52.246;8.052;2024-01-15T07:19:09;98417.63;;;0.18;100.00
31483;BME280;18103;52.246;8.052;2024-01-15T07:21:37;98422.94;;;0.16;100.00
31483;BME280;18103;52.246;8.052;2024-01-15T07:24:04;98418.06;;;0.12;100.00
31483;BME280;18103;52.246;8.052;2024-01-15T07:26:32;98433.94;;;0.20;100.00
31483;BME280;18103;52.246;8.052;2024-01-15T07:29:00;98428.84;;;0.19;100.00
31483;BME280;18103;52.246;8.052;2024-01-15T07:31:26;98425.94;;;0.10;100.00
31483;BME280;18103;52.246;8.052;2024-01-15T07:33:52;98432.69;;;0.13;100.00
31483;BME280;18103;52.246;8.052;2024-01-15T07:36:17;98428.22;;;0.15;100.00
31483;BME280;18103;52.246;8.052;2024-01-15T07:38:45;98431.84;;;0.12;100.00
31483;BME280;18103;52.246;8.052;2024-01-15T07:41:10;98438.28;;;0.20;100.00
31483;BME280;18103;52.246;8.052;2024-01-15T07:43:36;98431.13;;;0.10;100.00
31483;BME280;18103;52.246;8.052;2024-01-15T07:46:03;98433.50;;;0.13;100.00
31483;BME280;18103;52.246;8.052;2024-01-15T07:48:31;98440.66;;;0.10;100.00
31483;BME280;18103;52.246;8.052;2024-01-15T07:50:58;98439.63;;;0.12;100.00
31483;BME280;18103;52.246;8.052;2024-01-15T07:53:26;98429.34;;;0.11;100.00
31483;BME280;18103;52.246;8.052;2024-01-15T07:55:53;98426.66;;;0.12;100.00
31483;BME280;18103;52.246;8.052;2024-01-15T07:58:20;98429.16;;;0.14;100.00
31483;BME280;18103;52.246;8.052;2024-01-15T08:00:48;98431.56;;;0.17;100.00
31483;BME280;18103;52.246;8.052;2024-01-15T08:03:13;98430.44;;;0.21;100.00
31483;BME280;18103;52.246;8.052;2024-01-15T08:05:40;98438.38;;;0.05;100.00
31483;BME280;18103;52.246;8.052;2024-01-15T08:08:10;98432.28;;;0.06;100.00
31483;BME280;18103;52.246;8.052;2024-01-15T08:10:38;98439.13;;;0.07;100.00
31483;BME280;18103;52.246;8.052;2024-01-15T08:13:04;98444.91;;;0.11;100.00
31483;BME280;18103;52.246;8.052;2024-01-15T08:15:29;98432.97;;;0.08;100.00
31483;BME280;18103;52.246;8.052;2024-01-15T08:17:54;98439.63;;;0.12;100.00
31483;BME280;18103;52.246;8.052;2024-01-15T08:20:22;98449.28;;;0.10;100.00
31483;BME280;18103;52.246;8.052;2024-01-15T08:22:47;98435.19;;;0.02;100.00
31483;BME280;18103;52.246;8.052;2024-01-15T08:25:13;98440.25;;;0.03;100.00
31483;BME280;18103;52.246;8.052;2024-01-15T08:27:38;98435.06;;;0.03;100.00
31483;BME280;18103;52.246;8.052;2024-01-15T08:30:04;98437.66;;;0.03;100.00
31483;BME280;18103;52.246;8.052;2024-01-15T08:32:30;98437.44;;;0.06;100.00
31483;BME280;18103;52.246;8.052;2024-01-15T08:34:55;98432.47;;;0.03;100.00
31483;BME280;18103;52.246;8.052;2024-01-15T08:37:20;98432.69;;;0.00;100.00
31483;BME280;18103;52.246;8.052;2024-01-15T08:39:48;98431.94;;;-0.02;100.00
31483;BME280;18103;52.246;8.052;2024-01-15T08:42:13;98428.53;;;-0.03;100.00
31483;BME280;18103;52.246;8.052;2024-01-15T08:44:39;98428.53;;;-0.03;100.00
31483;BME280;18103;52.246;8.052;2024-01-15T08:47:05;98429.25;;;-0.01;100.00
31483;BME280;18103;52.246;8.052;2024-01-15T08:49:33;98427.28;;;0.03;100.00
31483;BME280;18103;52.246;8.052;2024-01-15T08:52:01;98436.41;;;-0.04;100.00
31483;BME280;18103;52.246;8.052;2024-01-15T08:54:29;98428.84;;;0.06;100.00
31483;BME280;18103;52.246;8.052;2024-01-15T08:56:54;98429.44;;;-0.04;100.00
31483;BME280;18103;52.246;8.052;2024-01-15T08:59:20;98427.28;;;0.03;100.00
31483;BME280;18103;52.246;8.052;2024-01-15T09:01:50;98427.69;;;0.10;100.00
31483;BME280;18103;52.246;8.052;2024-01-15T09:04:18;98421.78;;;0.08;100.00
31483;BME280;18103;52.246;8.052;2024-01-15T09:06:46;98428.22;;;0.02;100.00
31483;BME280;18103;52.246;8.052;2024-01-15T09:09:14;98433.09;;;0.07;100.00
31483;BME280;18103;52.246;8.052;2024-01-15T09:11:42;98431.34;;;0.07;100.00
31483;BME280;18103;52.246;8.052;2024-01-15T09:14:10;98424.59;;;0.05;100.00
31483;BME280;18103;52.246;8.052;2024-01-15T09:16:35;98421.06;;;0.06;100.00
31483;BME280;18103;52.246;8.052;2024-01-15T09:19:01;98430.38;;;0.08;100.00
31483;BME280;18103;52.246;8.052;2024-01-15T09:21:28;98431.53;;;0.04;100.00
31483;BME280;18103;52.246;8.052;2024-01-15T09:23:56;98422.81;;;0.05;100.00
31483;BME280;18103;52.246;8.052;2024-01-15T09:26:24;98422.91;;;0.04;100.00
31483;BME280;18103;52.246;8.052;2024-01-15T09:28:49;98426.97;;;0.08;100.00
31483;BME280;18103;52.246;8.052;2024-01-15T09:31:19;98426.16;;;0.07;100.00
31483;BME280;18103;52.246;8.052;2024-01-15T09:33:45;98425.31;;;0.07;100.00
31483;BME280;18103;52.246;8.052;2024-01-15T09:36:12;98427.19;;;0.05;100.00
31483;BME280;18103;52.246;8.052;2024-01-15T09:38:40;98437.44;;;0.06;100.00
31483;BME280;18103;52.246;8.052;2024-01-15T09:41:09;98434.03;;;0.06;100.00
31483;BME280;18103;52.246;8.052;2024-01-15T09:43:37;98433.28;;;0.04;100.00
31483;BME280;18103;52.246;8.052;2024-01-15T09:46:05;98421.69;;;0.09;100.00
31483;BME280;18103;52.246;8.052;2024-01-15T09:48:31;98428.84;;;0.06;100.00
31483;BME280;18103;52.246;8.052;2024-01-15T09:51:01;98426.25;;;0.06;100.00
31483;BME280;18103;52.246;8.052;2024-01-15T09:53:27;98420.13;;;0.07;100.00
31483;BME280;18103;52.246;8.052;2024-01-15T09:55:53;98423.56;;;0.07;100.00
31483;BME280;18103;52.246;8.052;2024-01-15T09:58:21;98423.66;;;0.06;100.00
31483;BME280;18103;52.246;8.052;2024-01-15T10:00:52;98425.09;;;0.10;100.00
31483;BME280;18103;52.246;8.052;2024-01-15T10:03:18;98437.13;;;0.11;100.00
31483;BME280;18103;52.246;8.052;2024-01-15T10:05:43;98431.75;;;0.14;100.00
31483;BME280;18103;52.246;8.052;2024-01-15T10:08:09;98435.78;;;0.18;100.00
31483;BME280;18103;52.246;8.052;2024-01-15T10:10:37;98434.53;;;0.11;100.00
31483;BME280;18103;52.246;8.052;2024-01-15T10:13:03;98434.06;;;0.19;100.00
31483;BME280;18103;52.246;8.052;2024-01-15T10:15:34;98431.66;;;0.15;100.00
31483;BME280;18103;52.246;8.052;2024-01-15T10:18:02;98423.34;;;0.23;100.00
31483;BME280;18103;52.246;8.052;2024-01-15T10:20:31;98427.41;;;0.14;100.00
31483;BME280;18103;52.246;8.052;2024-01-15T10:22:57;98421.78;;;0.21;100.00
31483;BME280;18103;52.246;8.052;2024-01-15T10:25:25;98430.00;;;0.27;100.00
31483;BME280;18103;52.246;8.052;2024-01-15T10:28:02;98434.38;;;0.27;100.00
31483;BME280;18103;52.246;8.052;2024-01-15T10:30:28;98424.09;;;0.25;100.00
31483;BME280;18103;52.246;8.052;2024-01-15T10:33:00;98428.13;;;0.29;100.00
31483;BME280;18103;52.246;8.052;2024-01-15T10:35:33;98421.41;;;0.27;100.00
31483;BME280;18103;52.246;8.052;2024-01-15T10:38:00;98431.78;;;0.27;100.00
31483;BME280;18103;52.246;8.052;2024-01-15T10:40:29;98433.41;;;0.28;100.00
31483;BME280;18103;52.246;8.052;2024-01-15T10:42:54;98426.59;;;0.27;100.00
31483;BME280;18103;52.246;8.052;2024-01-15T10:45:23;98425.84;;;0.25;100.00
31483;BME280;18103;52.246;8.052;2024-01-15T10:47:48;98427.19;;;0.30;100.00
31483;BME280;18103;52.246;8.052;2024-01-15T10:50:14;98425.63;;;0.28;100.00
31483;BME280;18103;52.246;8.052;2024-01-15T10:52:41;98416.72;;;0.19;100.00
31483;BME280;18103;52.246;8.052;2024-01-15T10:55:10;98410.81;;;0.30;100.00
31483;BME280;18103;52.246;8.052;2024-01-15T10:57:37;98411.63;;;0.30;100.00
31483;BME280;18103;52.246;8.052;2024-01-15T11:00:06;98405.63;;;0.30;100.00
31483;BME280;18103;52.246;8.052;2024-01-15T11:02:33;98404.88;;;0.28;100.00
31483;BME280;18103;52.246;8.052;2024-01-15T11:05:02;98401.34;;;0.29;100.00
31483;BME280;18103;52.246;8.052;2024-01-15T11:07:32;98394.31;;;0.31;100.00
31483;BME280;18103;52.246;8.052;2024-01-15T11:10:03;98404.59;;;0.32;100.00
31483;BME280;18103;52.246;8.052;2024-01-15T11:12:29;98397.50;;;0.34;100.00
31483;BME280;18103;52.246;8.052;2024-01-15T11:15:02;98403.00;;;0.43;100.00
31483;BME280;18103;52.246;8.052;2024-01-15T11:17:59;98395.84;;;0.46;100.00
31483;BME280;18103;52.246;8.052;2024-01-15T11:20:26;98399.59;;;0.55;100.00
31483;BME280;18103;52.246;8.052;2024-01-15T11:22:53;98400.09;;;0.47;100.00
31483;BME280;18103;52.246;8.052;2024-01-15T11:25:19;98394.72;;;0.50;100.00
31483;BME280;18103;52.246;8.052;2024-01-15T11:27:51;98389.91;;;0.57;100.00
31483;BME280;18103;52.246;8.052;2024-01-15T11:30:17;98395.72;;;0.61;100.00
31483;BME280;18103;52.246;8.052;2024-01-15T11:32:45;98395.00;;;0.72;100.00
31483;BME280;18103;52.246;8.052;2024-01-15T11:35:16;98401.56;;;0.64;100.00
31483;BME280;18103;52.246;8.052;2024-01-15T11:43:00;98402.69;;;0.60;100.00
31483;BME280;18103;52.246;8.052;2024-01-15T11:45:28;98396.66;;;0.60;100.00
31483;BME280;18103;52.246;8.052;2024-01-15T11:48:14;98400.09;;;0.60;100.00
31483;BME280;18103;52.246;8.052;2024-01-15T11:50:50;98397.59;;;0.59;100.00
31483;BME280;18103;52.246;8.052;2024-01-15T11:55:44;98393.97;;;0.61;100.00
31483;BME280;18103;52.246;8.052;2024-01-15T11:58:11;98395.00;;;0.59;100.00
31483;BME280;18103;52.246;8.052;2024-01-15T12:00:44;98392.31;;;0.60;100.00
31483;BME280;18103;52.246;8.052;2024-01-15T12:03:11;98396.06;;;0.56;100.00
31483;BME280;18103;52.246;8.052;2024-01-15T12:05:39;98401.44;;;0.66;100.00
31483;BME280;18103;52.246;8.052;2024-01-15T12:08:09;98394.91;;;0.60;100.00
31483;BME280;18103;52.246;8.052;2024-01-15T12:10:41;98394.81;;;0.62;100.00
31483;BME280;18103;52.246;8.052;2024-01-15T12:13:13;98397.00;;;0.55;100.00
31483;BME280;18103;52.246;8.052;2024-01-15T12:15:40;98396.78;;;0.58;100.00
31483;BME280;18103;52.246;8.052;2024-01-15T12:18:12;98389.72;;;0.60;100.00
31483;BME280;18103;52.246;8.052;2024-01-15T12:20:43;98385.34;;;0.61;100.00
31483;BME280;18103;52.246;8.052;2024-01-15T12:23:11;98376.81;;;0.59;100.00
31483;BME280;18103;52.246;8.052;2024-01-15T12:25:36;98377.44;;;0.62;100.00
31483;BME280;18103;52.246;8.052;2024-01-15T12:28:05;98382.84;;;0.59;100.00
31483;BME280;18103;52.246;8.052;2024-01-15T12:30:35;98384.13;;;0.54;100.00
31483;BME280;18103;52.246;8.052;2024-01-15T12:33:05;98378.81;;;0.55;100.00
31483;BME280;18103;52.246;8.052;2024-01-15T12:35:34;98378.19;;;0.64;100.00
31483;BME280;18103;52.246;8.052;2024-01-15T12:38:00;98368.84;;;0.62;100.00
31483;BME280;18103;52.246;8.052;2024-01-15T12:40:29;98370.59;;;0.61;100.00
31483;BME280;18103;52.246;8.052;2024-01-15T12:42:55;98373.81;;;0.65;100.00
31483;BME280;18103;52.246;8.052;2024-01-15T12:45:23;98372.66;;;0.69;100.00
31483;BME280;18103;52.246;8.052;2024-01-15T12:47:49;98372.56;;;0.71;100.00
31483;BME280;18103;52.246;8.052;2024-01-15T12:50:17;98379.94;;;0.64;100.00
31483;BME280;18103;52.246;8.052;2024-01-15T12:52:44;98371.94;;;0.67;99.88
31483;BME280;18103;52.246;8.052;2024-01-15T12:55:10;98382.84;;;0.72;100.00
31483;BME280;18103;52.246;8.052;2024-01-15T12:57:38;98385.75;;;0.67;99.95
31483;BME280;18103;52.246;8.052;2024-01-15T13:00:06;98385.66;;;0.69;100.00
31483;BME280;18103;52.246;8.052;2024-01-15T13:02:41;98377.41;;;0.75;100.00
31483;BME280;18103;52.246;8.052;2024-01-15T13:05:08;98376.31;;;0.66;100.00
31483;BME280;18103;52.246;8.052;2024-01-15T13:07:36;98377.41;;;0.75;100.00
31483;BME280;18103;52.246;8.052;2024-01-15T13:10:02;98373.19;;;0.74;100.00